WetterOnline ( http://www.wetteronline.de )

Wetter aktuell Pinneberg

Aktuelles Wetter: Quickborn (17m)

6-stündlich | Neueste Meldungen
Ortszeit Temperatur Wetter
Fr, 21.09. 20:00 12.3° C leicht bewölkt
Fr, 21.09. 14:00 13.9° C Regen
Fr, 21.09. 8:00 18.8° C bedeckt
Fr, 21.09. 2:00 16.0° C bedeckt
Do, 20.09. 20:00 17.4° C wolkig
Do, 20.09. 14:00 24.0° C bewölkt
Do, 20.09. 8:00 15.8° C leicht bewölkt
Do, 20.09. 2:00 18.4° C wolkig
Ortszeit Temperatur Wetter
Sa, 22.09. 1:00 9.5° C leicht bewölkt
Sa, 22.09. 0:50 9.5° C leicht bewölkt
Sa, 22.09. 0:40 9.5° C leicht bewölkt
Sa, 22.09. 0:30 9.6° C wolkenlos
Sa, 22.09. 0:20 9.6° C wolkenlos
Sa, 22.09. 0:10 9.8° C leicht bewölkt
Sa, 22.09. 0:00 10.1° C bewölkt
Fr, 21.09. 23:30 10.5° C wolkig
Fr, 21.09. 23:00 11.0° C wolkig
Fr, 21.09. 22:30 11.3° C wolkig
Fr, 21.09. 22:00 11.3° C wolkig
Ortszeit Relative Feuchte Sichtweite
Fr, 21.09. 20:00 65% 55 km
Fr, 21.09. 14:00 91% 35 km
Fr, 21.09. 8:00 66% 30 km
Fr, 21.09. 2:00 75% 22 km
Do, 20.09. 20:00 72% 27 km
Do, 20.09. 14:00 53% 25 km
Do, 20.09. 8:00 81% 23 km
Do, 20.09. 2:00 69% 25 km
Ortszeit Relative Feuchte Sichtweite
Sa, 22.09. 1:00 80% 70 km
Sa, 22.09. 0:50 80% -
Sa, 22.09. 0:40 80% -
Sa, 22.09. 0:30 78% 70 km
Sa, 22.09. 0:20 78% -
Sa, 22.09. 0:10 77% -
Sa, 22.09. 0:00 76% 70 km
Fr, 21.09. 23:30 73% 70 km
Fr, 21.09. 23:00 67% 70 km
Fr, 21.09. 22:30 65% 70 km
Fr, 21.09. 22:00 66% 70 km
Ortszeit Niederschlagsmenge Niederschlagsart
Fr, 21.09. 20:00 5 l/m2 in 12 Std. Regen
Fr, 21.09. 14:00 4 l/m2 in 6 Std. Regen
Fr, 21.09. 8:00 0.0 l/m2 in 12 Std. -
Fr, 21.09. 2:00 0.0 l/m2 in 6 Std. -
Do, 20.09. 20:00 0.0 l/m2 in 12 Std. -
Do, 20.09. 14:00 0.0 l/m2 in 6 Std. -
Do, 20.09. 8:00 0.0 l/m2 in 12 Std. -
Do, 20.09. 2:00 0.0 l/m2 in 6 Std. -
Ortszeit Niederschlagsmenge Niederschlagsart
Sa, 22.09. 1:00 0.0 l/m2 in 1 Std. -
Sa, 22.09. 0:50 keine Meldung -
Sa, 22.09. 0:40 keine Meldung -
Sa, 22.09. 0:30 0.0 l/m2 in 1 Std. -
Sa, 22.09. 0:20 keine Meldung -
Sa, 22.09. 0:10 keine Meldung -
Sa, 22.09. 0:00 0.1 l/m2 in 1 Std. Regen
Fr, 21.09. 23:30 0.1 l/m2 in 1 Std. Schneeregen
Fr, 21.09. 23:00 0.0 l/m2 in 1 Std. Regen
Fr, 21.09. 22:30 0.0 l/m2 in 1 Std. -
Fr, 21.09. 22:00 0.1 l/m2 in 1 Std. -
Ortszeit Stärke Spitze Richtung
km/h Bft. km/h Grad Sektor
Fr, 21.09. 20:00 13 3 48 260° W
Fr, 21.09. 14:00 13 3 83 250° W
Fr, 21.09. 8:00 11 2 19 160° S
Fr, 21.09. 2:00 7 2 11 160° S
Do, 20.09. 20:00 4 1 50 170° S
Do, 20.09. 14:00 25 4 43 220° SW
Do, 20.09. 8:00 9 2 19 200° S
Do, 20.09. 2:00 11 2 22 220° SW
Ortszeit Stärke Spitze Richtung
km/h Bft. km/h Grad Sektor
Sa, 22.09. 1:00 17 3 35 220° SW
Sa, 22.09. 0:50 17 3 - 220° SW
Sa, 22.09. 0:40 19 3 - 220° SW
Sa, 22.09. 0:30 18 3 36 220° SW
Sa, 22.09. 0:20 18 3 - 220° SW
Sa, 22.09. 0:10 18 3 - 220° SW
Sa, 22.09. 0:00 18 3 47 220° SW
Fr, 21.09. 23:30 22 4 47 220° SW
Fr, 21.09. 23:00 20 4 46 240° SW
Fr, 21.09. 22:30 18 3 36 240° SW
Fr, 21.09. 22:00 15 3 44 250° W
Ortszeit Untergrenze Bedeckung Gattung
total tief tief mittel hoch
Fr, 21.09. 20:00 1500 m 2/8 4/8 - - -
Fr, 21.09. 14:00 30 m 7/8 7/8 - - -
Fr, 21.09. 8:00 6300 m 8/8 8/8 - - -
Fr, 21.09. 2:00 5100 m 8/8 8/8 - - -
Do, 20.09. 20:00 9000 m 7/8 0/8 - - -
Do, 20.09. 14:00 1230 m 8/8 7/8 - - -
Do, 20.09. 8:00 10500 m 5/8 0/8 - - -
Do, 20.09. 2:00 7500 m 8/8 0/8 - - -
Ortszeit Bedeckungsgrad in Achtel und Wolkenuntergrenze
Sa, 22.09. 1:00 1(1200m) 4(6600m)
Sa, 22.09. 0:50 1(1200m) 4(6600m)
Sa, 22.09. 0:40 1(1230m) 1(2700m) 2(6600m)
Sa, 22.09. 0:30 1(1170m)
Sa, 22.09. 0:20 keine Wolken
Sa, 22.09. 0:10 1(1800m) 2(2400m)
Sa, 22.09. 0:00 4(1500m) 6(2400m) 7(4200m)
Fr, 21.09. 23:30 3(1500m) 7(3900m) 8(5400m)
Fr, 21.09. 23:00 2(1140m) 6(2400m) 6(5100m)
Fr, 21.09. 22:30 1(2400m) 7(4800m) 8(5400m)
Fr, 21.09. 22:00 2(5100m) 5(6300m) 7(6300m)
Ortszeit Luftdruck NN (hPa) Tendenz (hPa in 3 Std.)
Fr, 21.09. 20:00 1006 + 2,1
Fr, 21.09. 14:00 1002 + 2,7
Fr, 21.09. 8:00 1001 - 3,8
Fr, 21.09. 2:00 1008 - 2,7
Do, 20.09. 20:00 1012 - 1,0
Do, 20.09. 14:00 1014 - 1,2
Do, 20.09. 8:00 1016 + 0,3
Do, 20.09. 2:00 1015 - 0,1
Ortszeit Luftdruck NN (hPa) Tendenz (hPa in 3 Std.)
Sa, 22.09. 1:00 1010 + 1,8
Sa, 22.09. 0:50 1010 keine Meldung
Sa, 22.09. 0:40 1009 keine Meldung
Sa, 22.09. 0:30 1009 + 1,7
Sa, 22.09. 0:20 1009 keine Meldung
Sa, 22.09. 0:10 1009 keine Meldung
Sa, 22.09. 0:00 1009 + 1,9
Fr, 21.09. 23:30 1009 + 2,0
Fr, 21.09. 23:00 1009 + 2,6
Fr, 21.09. 22:30 1008 + 2,3
Fr, 21.09. 22:00 1008 + 2,3
Ortszeit Schneehöhe (cm)
Fr, 21.09. 20:00 -
Fr, 21.09. 14:00 -
Fr, 21.09. 8:00 -
Fr, 21.09. 2:00 -
Do, 20.09. 20:00 -
Do, 20.09. 14:00 -
Do, 20.09. 8:00 -
Do, 20.09. 2:00 -
Ortszeit Schneehöhe (cm)
Sa, 22.09. 1:00 -
Sa, 22.09. 0:50 -
Sa, 22.09. 0:40 -
Sa, 22.09. 0:30 -
Sa, 22.09. 0:20 -
Sa, 22.09. 0:10 -
Sa, 22.09. 0:00 -
Fr, 21.09. 23:30 -
Fr, 21.09. 23:00 -
Fr, 21.09. 22:30 -
Fr, 21.09. 22:00 -
Link zu dieser Seite / Seite empfehlen

Das Wetter in ...